sensor_id;sensor_type;location;lat;lon;timestamp;P1;durP1;ratioP1;P2;durP2;ratioP2
1076;SDS011;64114;48.726;9.370;2022-12-18T00:01:26;58.60;;;27.40;;
1076;SDS011;64114;48.726;9.370;2022-12-18T00:03:56;63.87;;;28.10;;
1076;SDS011;64114;48.726;9.370;2022-12-18T00:06:24;56.30;;;26.23;;
1076;SDS011;64114;48.726;9.370;2022-12-18T00:08:54;59.33;;;27.67;;
1076;SDS011;64114;48.726;9.370;2022-12-18T00:11:23;68.70;;;28.67;;
1076;SDS011;64114;48.726;9.370;2022-12-18T00:13:53;66.13;;;27.37;;
1076;SDS011;64114;48.726;9.370;2022-12-18T00:16:23;56.43;;;28.40;;
1076;SDS011;64114;48.726;9.370;2022-12-18T00:18:56;72.17;;;30.10;;
1076;SDS011;64114;48.726;9.370;2022-12-18T00:21:26;60.53;;;26.87;;
1076;SDS011;64114;48.726;9.370;2022-12-18T00:23:56;61.30;;;29.17;;
1076;SDS011;64114;48.726;9.370;2022-12-18T00:26:25;60.33;;;27.63;;
1076;SDS011;64114;48.726;9.370;2022-12-18T00:28:58;64.20;;;30.17;;
1076;SDS011;64114;48.726;9.370;2022-12-18T00:31:29;64.60;;;27.23;;
1076;SDS011;64114;48.726;9.370;2022-12-18T00:34:00;65.73;;;29.10;;
1076;SDS011;64114;48.726;9.370;2022-12-18T00:36:29;49.07;;;26.30;;
1076;SDS011;64114;48.726;9.370;2022-12-18T00:39:01;69.97;;;30.47;;
1076;SDS011;64114;48.726;9.370;2022-12-18T00:41:31;64.00;;;29.80;;
1076;SDS011;64114;48.726;9.370;2022-12-18T00:44:17;63.43;;;26.87;;
1076;SDS011;64114;48.726;9.370;2022-12-18T00:46:46;63.13;;;25.70;;
1076;SDS011;64114;48.726;9.370;2022-12-18T00:49:16;62.90;;;27.77;;
1076;SDS011;64114;48.726;9.370;2022-12-18T00:51:45;63.63;;;31.03;;
1076;SDS011;64114;48.726;9.370;2022-12-18T00:54:14;59.50;;;27.23;;
1076;SDS011;64114;48.726;9.370;2022-12-18T00:56:43;72.40;;;26.87;;
1076;SDS011;64114;48.726;9.370;2022-12-18T00:59:16;66.27;;;30.20;;
1076;SDS011;64114;48.726;9.370;2022-12-18T01:01:44;65.23;;;27.97;;
1076;SDS011;64114;48.726;9.370;2022-12-18T01:04:13;59.57;;;24.93;;
1076;SDS011;64114;48.726;9.370;2022-12-18T01:06:45;69.93;;;27.17;;
1076;SDS011;64114;48.726;9.370;2022-12-18T01:09:13;60.13;;;27.90;;
1076;SDS011;64114;48.726;9.370;2022-12-18T01:11:41;68.37;;;27.40;;
1076;SDS011;64114;48.726;9.370;2022-12-18T01:14:09;57.67;;;27.80;;
1076;SDS011;64114;48.726;9.370;2022-12-18T01:16:37;70.27;;;26.70;;
1076;SDS011;64114;48.726;9.370;2022-12-18T01:19:05;76.43;;;27.50;;
1076;SDS011;64114;48.726;9.370;2022-12-18T01:21:33;61.10;;;29.17;;
1076;SDS011;64114;48.726;9.370;2022-12-18T01:24:04;56.83;;;26.93;;
1076;SDS011;64114;48.726;9.370;2022-12-18T01:26:32;58.20;;;24.83;;
1076;SDS011;64114;48.726;9.370;2022-12-18T01:29:00;58.47;;;26.17;;
1076;SDS011;64114;48.726;9.370;2022-12-18T01:31:29;53.73;;;24.07;;
1076;SDS011;64114;48.726;9.370;2022-12-18T01:34:01;53.60;;;26.50;;
1076;SDS011;64114;48.726;9.370;2022-12-18T01:36:30;61.60;;;24.47;;
1076;SDS011;64114;48.726;9.370;2022-12-18T01:38:59;50.20;;;23.83;;
1076;SDS011;64114;48.726;9.370;2022-12-18T01:41:29;52.93;;;23.77;;
1076;SDS011;64114;48.726;9.370;2022-12-18T01:47:21;60.87;;;26.97;;
1076;SDS011;64114;48.726;9.370;2022-12-18T01:49:52;54.83;;;22.80;;
1076;SDS011;64114;48.726;9.370;2022-12-18T01:52:22;63.10;;;23.80;;
1076;SDS011;64114;48.726;9.370;2022-12-18T01:54:52;52.43;;;25.57;;
1076;SDS011;64114;48.726;9.370;2022-12-18T01:57:22;54.63;;;25.00;;
1076;SDS011;64114;48.726;9.370;2022-12-18T01:59:53;52.57;;;23.13;;
1076;SDS011;64114;48.726;9.370;2022-12-18T02:02:23;61.20;;;25.10;;
1076;SDS011;64114;48.726;9.370;2022-12-18T02:04:51;51.33;;;23.50;;
1076;SDS011;64114;48.726;9.370;2022-12-18T02:07:20;51.50;;;23.20;;
1076;SDS011;64114;48.726;9.370;2022-12-18T02:09:58;38.23;;;21.47;;
1076;SDS011;64114;48.726;9.370;2022-12-18T02:12:30;56.53;;;23.77;;
1076;SDS011;64114;48.726;9.370;2022-12-18T02:15:10;56.47;;;23.03;;
1076;SDS011;64114;48.726;9.370;2022-12-18T02:17:43;48.47;;;23.40;;
1076;SDS011;64114;48.726;9.370;2022-12-18T02:20:18;66.40;;;25.80;;
1076;SDS011;64114;48.726;9.370;2022-12-18T02:22:55;44.57;;;21.03;;
1076;SDS011;64114;48.726;9.370;2022-12-18T02:25:51;53.10;;;23.60;;
1076;SDS011;64114;48.726;9.370;2022-12-18T02:28:31;58.47;;;23.40;;
1076;SDS011;64114;48.726;9.370;2022-12-18T02:31:05;58.97;;;23.83;;
1076;SDS011;64114;48.726;9.370;2022-12-18T02:33:36;57.13;;;25.97;;
1076;SDS011;64114;48.726;9.370;2022-12-18T02:36:06;48.83;;;22.63;;
1076;SDS011;64114;48.726;9.370;2022-12-18T02:38:37;51.53;;;24.60;;
1076;SDS011;64114;48.726;9.370;2022-12-18T02:41:12;49.60;;;23.00;;
1076;SDS011;64114;48.726;9.370;2022-12-18T02:43:45;51.37;;;24.40;;
1076;SDS011;64114;48.726;9.370;2022-12-18T02:46:23;52.80;;;24.50;;
1076;SDS011;64114;48.726;9.370;2022-12-18T02:48:57;48.80;;;25.23;;
1076;SDS011;64114;48.726;9.370;2022-12-18T02:51:36;53.67;;;24.60;;
1076;SDS011;64114;48.726;9.370;2022-12-18T02:54:13;56.37;;;22.03;;
1076;SDS011;64114;48.726;9.370;2022-12-18T02:56:53;45.20;;;22.70;;
1076;SDS011;64114;48.726;9.370;2022-12-18T02:59:24;46.10;;;20.53;;
1076;SDS011;64114;48.726;9.370;2022-12-18T03:02:01;49.30;;;21.97;;
1076;SDS011;64114;48.726;9.370;2022-12-18T03:04:35;52.43;;;22.83;;
1076;SDS011;64114;48.726;9.370;2022-12-18T03:07:11;46.97;;;21.43;;
1076;SDS011;64114;48.726;9.370;2022-12-18T03:09:48;48.40;;;22.67;;
1076;SDS011;64114;48.726;9.370;2022-12-18T03:12:21;41.33;;;20.50;;
1076;SDS011;64114;48.726;9.370;2022-12-18T03:14:57;51.70;;;23.57;;
1076;SDS011;64114;48.726;9.370;2022-12-18T03:17:31;44.00;;;21.07;;
1076;SDS011;64114;48.726;9.370;2022-12-18T03:20:02;49.97;;;23.23;;
1076;SDS011;64114;48.726;9.370;2022-12-18T03:22:34;48.63;;;21.70;;
1076;SDS011;64114;48.726;9.370;2022-12-18T03:25:06;48.70;;;21.30;;
1076;SDS011;64114;48.726;9.370;2022-12-18T03:27:46;49.60;;;21.30;;
1076;SDS011;64114;48.726;9.370;2022-12-18T03:30:20;50.30;;;22.03;;
1076;SDS011;64114;48.726;9.370;2022-12-18T03:32:49;47.93;;;21.80;;
1076;SDS011;64114;48.726;9.370;2022-12-18T03:35:26;44.20;;;22.50;;
1076;SDS011;64114;48.726;9.370;2022-12-18T03:37:57;40.93;;;18.90;;
1076;SDS011;64114;48.726;9.370;2022-12-18T03:40:26;51.90;;;21.83;;
1076;SDS011;64114;48.726;9.370;2022-12-18T03:43:02;45.30;;;23.13;;
1076;SDS011;64114;48.726;9.370;2022-12-18T03:45:39;44.23;;;19.20;;
1076;SDS011;64114;48.726;9.370;2022-12-18T03:48:13;54.77;;;23.30;;
1076;SDS011;64114;48.726;9.370;2022-12-18T03:50:48;49.17;;;21.50;;
1076;SDS011;64114;48.726;9.370;2022-12-18T03:53:25;49.23;;;23.07;;
1076;SDS011;64114;48.726;9.370;2022-12-18T03:56:02;39.57;;;18.83;;
1076;SDS011;64114;48.726;9.370;2022-12-18T03:58:38;46.87;;;22.40;;
1076;SDS011;64114;48.726;9.370;2022-12-18T04:01:16;41.40;;;21.57;;
1076;SDS011;64114;48.726;9.370;2022-12-18T04:03:46;46.57;;;21.00;;
1076;SDS011;64114;48.726;9.370;2022-12-18T04:06:18;50.27;;;20.43;;
1076;SDS011;64114;48.726;9.370;2022-12-18T04:08:47;51.20;;;24.40;;
1076;SDS011;64114;48.726;9.370;2022-12-18T04:11:19;48.93;;;22.93;;
1076;SDS011;64114;48.726;9.370;2022-12-18T04:13:49;46.00;;;21.40;;
1076;SDS011;64114;48.726;9.370;2022-12-18T04:16:21;36.20;;;19.40;;
1076;SDS011;64114;48.726;9.370;2022-12-18T04:18:52;41.93;;;19.67;;
1076;SDS011;64114;48.726;9.370;2022-12-18T04:21:23;48.83;;;21.30;;
1076;SDS011;64114;48.726;9.370;2022-12-18T04:23:52;40.97;;;20.07;;
1076;SDS011;64114;48.726;9.370;2022-12-18T04:26:21;39.10;;;20.70;;
1076;SDS011;64114;48.726;9.370;2022-12-18T04:29:04;48.63;;;21.83;;
1076;SDS011;64114;48.726;9.370;2022-12-18T04:31:32;46.37;;;18.57;;
1076;SDS011;64114;48.726;9.370;2022-12-18T04:34:01;41.10;;;21.30;;
1076;SDS011;64114;48.726;9.370;2022-12-18T04:36:36;40.70;;;19.73;;
1076;SDS011;64114;48.726;9.370;2022-12-18T04:39:04;55.27;;;20.97;;
1076;SDS011;64114;48.726;9.370;2022-12-18T04:41:32;55.87;;;22.40;;
1076;SDS011;64114;48.726;9.370;2022-12-18T04:44:03;40.53;;;20.07;;
1076;SDS011;64114;48.726;9.370;2022-12-18T04:46:32;41.67;;;19.70;;
1076;SDS011;64114;48.726;9.370;2022-12-18T04:49:00;41.33;;;18.80;;
1076;SDS011;64114;48.726;9.370;2022-12-18T04:51:28;35.97;;;17.63;;
1076;SDS011;64114;48.726;9.370;2022-12-18T04:53:56;39.97;;;18.97;;
1076;SDS011;64114;48.726;9.370;2022-12-18T04:56:24;45.90;;;20.50;;
1076;SDS011;64114;48.726;9.370;2022-12-18T04:58:52;45.63;;;20.10;;
1076;SDS011;64114;48.726;9.370;2022-12-18T05:01:21;38.80;;;19.60;;
1076;SDS011;64114;48.726;9.370;2022-12-18T05:03:56;40.00;;;19.57;;
1076;SDS011;64114;48.726;9.370;2022-12-18T05:06:24;38.30;;;20.00;;
1076;SDS011;64114;48.726;9.370;2022-12-18T05:08:52;40.03;;;18.50;;
1076;SDS011;64114;48.726;9.370;2022-12-18T05:11:20;40.80;;;17.77;;
1076;SDS011;64114;48.726;9.370;2022-12-18T05:13:49;37.30;;;19.57;;
1076;SDS011;64114;48.726;9.370;2022-12-18T05:16:17;33.53;;;16.80;;
1076;SDS011;64114;48.726;9.370;2022-12-18T05:18:46;49.70;;;21.10;;
1076;SDS011;64114;48.726;9.370;2022-12-18T05:21:13;44.93;;;20.30;;
1076;SDS011;64114;48.726;9.370;2022-12-18T05:23:41;39.90;;;19.93;;
1076;SDS011;64114;48.726;9.370;2022-12-18T05:26:09;46.60;;;20.07;;
1076;SDS011;64114;48.726;9.370;2022-12-18T05:28:43;47.17;;;21.20;;
1076;SDS011;64114;48.726;9.370;2022-12-18T05:31:11;53.37;;;21.43;;
1076;SDS011;64114;48.726;9.370;2022-12-18T05:33:39;43.27;;;20.77;;
1076;SDS011;64114;48.726;9.370;2022-12-18T05:36:10;46.13;;;21.90;;
1076;SDS011;64114;48.726;9.370;2022-12-18T05:38:38;39.60;;;21.20;;
1076;SDS011;64114;48.726;9.370;2022-12-18T05:41:07;39.77;;;20.53;;
1076;SDS011;64114;48.726;9.370;2022-12-18T05:43:36;47.27;;;22.20;;
1076;SDS011;64114;48.726;9.370;2022-12-18T05:46:06;45.93;;;19.37;;
1076;SDS011;64114;48.726;9.370;2022-12-18T05:48:35;47.13;;;21.63;;
1076;SDS011;64114;48.726;9.370;2022-12-18T05:51:05;45.80;;;20.83;;
1076;SDS011;64114;48.726;9.370;2022-12-18T05:53:37;37.13;;;18.37;;
1076;SDS011;64114;48.726;9.370;2022-12-18T05:56:06;40.80;;;20.43;;
1076;SDS011;64114;48.726;9.370;2022-12-18T05:58:37;36.93;;;18.63;;
1076;SDS011;64114;48.726;9.370;2022-12-18T06:01:07;36.00;;;18.70;;
1076;SDS011;64114;48.726;9.370;2022-12-18T06:03:36;44.90;;;18.90;;
1076;SDS011;64114;48.726;9.370;2022-12-18T06:06:12;36.40;;;17.80;;
1076;SDS011;64114;48.726;9.370;2022-12-18T06:08:42;35.83;;;18.77;;
1076;SDS011;64114;48.726;9.370;2022-12-18T06:11:12;32.00;;;17.53;;
1076;SDS011;64114;48.726;9.370;2022-12-18T06:13:40;29.90;;;15.93;;
1076;SDS011;64114;48.726;9.370;2022-12-18T06:16:08;39.07;;;18.00;;
1076;SDS011;64114;48.726;9.370;2022-12-18T06:18:36;35.83;;;18.27;;
1076;SDS011;64114;48.726;9.370;2022-12-18T06:21:05;43.17;;;18.73;;
1076;SDS011;64114;48.726;9.370;2022-12-18T06:23:33;36.87;;;18.20;;
1076;SDS011;64114;48.726;9.370;2022-12-18T06:26:07;31.20;;;17.00;;
1076;SDS011;64114;48.726;9.370;2022-12-18T06:28:37;44.80;;;18.88;;
1076;SDS011;64114;48.726;9.370;2022-12-18T06:31:05;39.67;;;19.60;;
1076;SDS011;64114;48.726;9.370;2022-12-18T06:33:33;37.47;;;21.10;;
1076;SDS011;64114;48.726;9.370;2022-12-18T06:36:02;47.90;;;20.33;;
1076;SDS011;64114;48.726;9.370;2022-12-18T06:38:35;41.20;;;18.73;;
1076;SDS011;64114;48.726;9.370;2022-12-18T06:41:07;39.27;;;18.83;;
1076;SDS011;64114;48.726;9.370;2022-12-18T06:43:35;36.27;;;19.50;;
1076;SDS011;64114;48.726;9.370;2022-12-18T06:46:04;42.60;;;18.43;;
1076;SDS011;64114;48.726;9.370;2022-12-18T06:48:33;31.87;;;16.93;;
1076;SDS011;64114;48.726;9.370;2022-12-18T06:51:01;38.30;;;16.80;;
1076;SDS011;64114;48.726;9.370;2022-12-18T06:53:29;35.40;;;17.20;;
1076;SDS011;64114;48.726;9.370;2022-12-18T06:55:59;34.47;;;16.73;;
1076;SDS011;64114;48.726;9.370;2022-12-18T06:58:36;35.37;;;19.57;;
1076;SDS011;64114;48.726;9.370;2022-12-18T07:01:05;47.30;;;19.43;;
1076;SDS011;64114;48.726;9.370;2022-12-18T07:03:36;39.87;;;17.67;;
1076;SDS011;64114;48.726;9.370;2022-12-18T07:06:05;32.20;;;19.03;;
1076;SDS011;64114;48.726;9.370;2022-12-18T07:08:32;36.47;;;16.43;;
1076;SDS011;64114;48.726;9.370;2022-12-18T07:11:02;32.93;;;16.87;;
1076;SDS011;64114;48.726;9.370;2022-12-18T07:13:31;33.93;;;17.87;;
1076;SDS011;64114;48.726;9.370;2022-12-18T07:16:05;39.43;;;19.43;;
1076;SDS011;64114;48.726;9.370;2022-12-18T07:18:42;36.87;;;18.93;;
1076;SDS011;64114;48.726;9.370;2022-12-18T07:21:11;43.20;;;16.33;;
1076;SDS011;64114;48.726;9.370;2022-12-18T07:23:40;33.63;;;18.70;;
1076;SDS011;64114;48.726;9.370;2022-12-18T07:26:09;29.93;;;15.80;;
1076;SDS011;64114;48.726;9.370;2022-12-18T07:28:38;30.27;;;17.37;;
1076;SDS011;64114;48.726;9.370;2022-12-18T07:31:09;35.90;;;17.23;;
1076;SDS011;64114;48.726;9.370;2022-12-18T07:33:39;30.30;;;17.63;;
1076;SDS011;64114;48.726;9.370;2022-12-18T07:36:07;39.63;;;17.53;;
1076;SDS011;64114;48.726;9.370;2022-12-18T07:38:37;30.60;;;18.70;;
1076;SDS011;64114;48.726;9.370;2022-12-18T07:41:06;30.40;;;17.10;;
1076;SDS011;64114;48.726;9.370;2022-12-18T07:43:35;39.83;;;17.53;;
1076;SDS011;64114;48.726;9.370;2022-12-18T07:46:04;33.27;;;15.80;;
1076;SDS011;64114;48.726;9.370;2022-12-18T07:48:34;41.50;;;18.83;;
1076;SDS011;64114;48.726;9.370;2022-12-18T07:51:03;36.00;;;18.40;;
1076;SDS011;64114;48.726;9.370;2022-12-18T07:53:33;38.70;;;17.40;;
1076;SDS011;64114;48.726;9.370;2022-12-18T07:56:03;46.20;;;17.10;;
1076;SDS011;64114;48.726;9.370;2022-12-18T07:58:53;40.87;;;20.63;;
1076;SDS011;64114;48.726;9.370;2022-12-18T08:01:21;37.50;;;17.87;;
1076;SDS011;64114;48.726;9.370;2022-12-18T08:03:50;34.43;;;17.50;;
1076;SDS011;64114;48.726;9.370;2022-12-18T08:06:18;40.43;;;20.27;;
1076;SDS011;64114;48.726;9.370;2022-12-18T08:08:50;38.07;;;19.83;;
1076;SDS011;64114;48.726;9.370;2022-12-18T08:11:18;43.90;;;19.77;;
1076;SDS011;64114;48.726;9.370;2022-12-18T08:13:46;37.30;;;18.75;;
1076;SDS011;64114;48.726;9.370;2022-12-18T08:16:15;44.20;;;20.13;;
1076;SDS011;64114;48.726;9.370;2022-12-18T08:18:44;37.03;;;18.93;;
1076;SDS011;64114;48.726;9.370;2022-12-18T08:21:15;42.50;;;20.90;;
1076;SDS011;64114;48.726;9.370;2022-12-18T08:23:46;48.33;;;22.43;;
1076;SDS011;64114;48.726;9.370;2022-12-18T08:26:16;50.60;;;22.37;;
1076;SDS011;64114;48.726;9.370;2022-12-18T08:28:44;39.70;;;20.73;;
1076;SDS011;64114;48.726;9.370;2022-12-18T08:31:14;48.13;;;21.00;;
1076;SDS011;64114;48.726;9.370;2022-12-18T08:33:41;49.47;;;23.90;;
1076;SDS011;64114;48.726;9.370;2022-12-18T08:36:10;48.73;;;22.77;;
1076;SDS011;64114;48.726;9.370;2022-12-18T08:38:39;43.80;;;20.07;;
1076;SDS011;64114;48.726;9.370;2022-12-18T08:41:08;48.47;;;22.27;;
1076;SDS011;64114;48.726;9.370;2022-12-18T08:43:37;57.13;;;23.30;;
1076;SDS011;64114;48.726;9.370;2022-12-18T08:46:23;41.50;;;20.40;;
1076;SDS011;64114;48.726;9.370;2022-12-18T08:48:53;48.50;;;21.20;;
1076;SDS011;64114;48.726;9.370;2022-12-18T08:51:22;52.57;;;21.97;;
1076;SDS011;64114;48.726;9.370;2022-12-18T08:53:51;40.23;;;20.07;;
1076;SDS011;64114;48.726;9.370;2022-12-18T08:56:19;40.80;;;23.30;;
1076;SDS011;64114;48.726;9.370;2022-12-18T08:58:47;56.30;;;25.70;;
1076;SDS011;64114;48.726;9.370;2022-12-18T09:01:15;44.83;;;23.00;;
1076;SDS011;64114;48.726;9.370;2022-12-18T09:03:43;43.93;;;24.17;;
1076;SDS011;64114;48.726;9.370;2022-12-18T09:06:16;47.30;;;26.07;;
1076;SDS011;64114;48.726;9.370;2022-12-18T09:08:44;50.77;;;22.40;;
1076;SDS011;64114;48.726;9.370;2022-12-18T09:11:15;37.90;;;21.23;;
1076;SDS011;64114;48.726;9.370;2022-12-18T09:13:47;45.97;;;22.60;;
1076;SDS011;64114;48.726;9.370;2022-12-18T09:16:32;47.03;;;20.30;;
1076;SDS011;64114;48.726;9.370;2022-12-18T09:19:02;41.67;;;21.80;;
1076;SDS011;64114;48.726;9.370;2022-12-18T09:21:31;43.50;;;21.90;;
1076;SDS011;64114;48.726;9.370;2022-12-18T09:24:02;45.40;;;21.90;;
1076;SDS011;64114;48.726;9.370;2022-12-18T09:26:35;47.87;;;24.20;;
1076;SDS011;64114;48.726;9.370;2022-12-18T09:29:05;50.17;;;23.97;;
1076;SDS011;64114;48.726;9.370;2022-12-18T09:31:33;50.17;;;24.00;;
1076;SDS011;64114;48.726;9.370;2022-12-18T09:34:01;41.63;;;21.17;;
1076;SDS011;64114;48.726;9.370;2022-12-18T09:36:37;46.23;;;22.00;;
1076;SDS011;64114;48.726;9.370;2022-12-18T09:39:05;44.70;;;24.73;;
1076;SDS011;64114;48.726;9.370;2022-12-18T09:41:40;60.63;;;24.90;;
1076;SDS011;64114;48.726;9.370;2022-12-18T09:44:22;50.13;;;21.30;;
1076;SDS011;64114;48.726;9.370;2022-12-18T09:46:54;41.17;;;22.60;;
1076;SDS011;64114;48.726;9.370;2022-12-18T09:49:29;43.87;;;21.63;;
1076;SDS011;64114;48.726;9.370;2022-12-18T09:52:02;41.20;;;21.87;;
1076;SDS011;64114;48.726;9.370;2022-12-18T09:54:39;48.27;;;24.13;;
1076;SDS011;64114;48.726;9.370;2022-12-18T09:57:14;41.67;;;21.40;;
1076;SDS011;64114;48.726;9.370;2022-12-18T09:59:46;46.30;;;22.27;;
1076;SDS011;64114;48.726;9.370;2022-12-18T10:02:20;48.97;;;25.30;;
1076;SDS011;64114;48.726;9.370;2022-12-18T10:04:54;42.17;;;22.73;;
1076;SDS011;64114;48.726;9.370;2022-12-18T10:07:40;41.97;;;21.97;;
1076;SDS011;64114;48.726;9.370;2022-12-18T10:10:24;47.43;;;23.83;;
1076;SDS011;64114;48.726;9.370;2022-12-18T10:13:03;58.03;;;26.23;;
1076;SDS011;64114;48.726;9.370;2022-12-18T10:15:39;53.80;;;23.17;;
1076;SDS011;64114;48.726;9.370;2022-12-18T10:18:22;36.57;;;21.60;;
1076;SDS011;64114;48.726;9.370;2022-12-18T10:21:07;44.27;;;24.63;;
1076;SDS011;64114;48.726;9.370;2022-12-18T10:23:41;51.07;;;24.40;;
1076;SDS011;64114;48.726;9.370;2022-12-18T10:26:16;47.40;;;24.03;;
1076;SDS011;64114;48.726;9.370;2022-12-18T10:28:46;47.67;;;23.93;;
1076;SDS011;64114;48.726;9.370;2022-12-18T10:31:16;45.57;;;25.20;;
1076;SDS011;64114;48.726;9.370;2022-12-18T10:33:45;41.23;;;21.50;;
1076;SDS011;64114;48.726;9.370;2022-12-18T10:36:13;46.33;;;24.07;;
1076;SDS011;64114;48.726;9.370;2022-12-18T10:38:41;54.00;;;24.73;;
1076;SDS011;64114;48.726;9.370;2022-12-18T10:41:22;43.63;;;23.60;;
1076;SDS011;64114;48.726;9.370;2022-12-18T10:44:12;57.23;;;25.23;;
1076;SDS011;64114;48.726;9.370;2022-12-18T10:46:44;43.80;;;21.67;;
1076;SDS011;64114;48.726;9.370;2022-12-18T10:49:21;52.10;;;25.10;;
1076;SDS011;64114;48.726;9.370;2022-12-18T10:51:51;49.43;;;24.13;;
1076;SDS011;64114;48.726;9.370;2022-12-18T10:54:32;47.20;;;24.57;;
1076;SDS011;64114;48.726;9.370;2022-12-18T10:57:15;54.73;;;25.27;;
1076;SDS011;64114;48.726;9.370;2022-12-18T10:59:52;46.40;;;23.10;;
1076;SDS011;64114;48.726;9.370;2022-12-18T11:02:26;50.30;;;25.43;;
1076;SDS011;64114;48.726;9.370;2022-12-18T11:05:00;51.40;;;26.33;;
1076;SDS011;64114;48.726;9.370;2022-12-18T11:07:40;49.07;;;26.10;;
1076;SDS011;64114;48.726;9.370;2022-12-18T11:10:15;44.83;;;23.97;;
1076;SDS011;64114;48.726;9.370;2022-12-18T11:12:45;48.80;;;26.63;;
1076;SDS011;64114;48.726;9.370;2022-12-18T11:15:16;50.70;;;25.37;;
1076;SDS011;64114;48.726;9.370;2022-12-18T11:17:48;48.57;;;24.50;;
1076;SDS011;64114;48.726;9.370;2022-12-18T11:20:25;56.07;;;27.57;;
1076;SDS011;64114;48.726;9.370;2022-12-18T11:22:59;54.90;;;28.40;;
1076;SDS011;64114;48.726;9.370;2022-12-18T11:25:29;49.53;;;27.53;;
1076;SDS011;64114;48.726;9.370;2022-12-18T11:28:01;51.10;;;26.20;;
1076;SDS011;64114;48.726;9.370;2022-12-18T11:30:33;54.90;;;27.90;;
1076;SDS011;64114;48.726;9.370;2022-12-18T11:33:03;47.83;;;25.30;;
1076;SDS011;64114;48.726;9.370;2022-12-18T11:35:35;57.30;;;29.27;;
1076;SDS011;64114;48.726;9.370;2022-12-18T11:38:11;55.33;;;26.97;;
1076;SDS011;64114;48.726;9.370;2022-12-18T11:40:47;49.63;;;25.83;;
1076;SDS011;64114;48.726;9.370;2022-12-18T11:43:21;61.67;;;28.00;;
1076;SDS011;64114;48.726;9.370;2022-12-18T11:45:58;55.63;;;26.27;;
1076;SDS011;64114;48.726;9.370;2022-12-18T11:48:30;53.77;;;27.40;;
1076;SDS011;64114;48.726;9.370;2022-12-18T11:51:02;47.87;;;26.20;;
1076;SDS011;64114;48.726;9.370;2022-12-18T11:53:33;48.50;;;26.37;;
1076;SDS011;64114;48.726;9.370;2022-12-18T11:56:07;45.80;;;26.43;;
1076;SDS011;64114;48.726;9.370;2022-12-18T11:58:52;67.77;;;30.17;;
1076;SDS011;64114;48.726;9.370;2022-12-18T12:01:32;56.67;;;28.30;;
1076;SDS011;64114;48.726;9.370;2022-12-18T12:07:12;58.30;;;28.90;;
1076;SDS011;64114;48.726;9.370;2022-12-18T12:09:50;50.63;;;28.27;;
1076;SDS011;64114;48.726;9.370;2022-12-18T12:12:32;61.10;;;28.33;;
1076;SDS011;64114;48.726;9.370;2022-12-18T12:15:18;51.10;;;27.30;;
1076;SDS011;64114;48.726;9.370;2022-12-18T12:17:59;53.03;;;28.07;;
1076;SDS011;64114;48.726;9.370;2022-12-18T12:20:39;55.07;;;28.33;;
1076;SDS011;64114;48.726;9.370;2022-12-18T12:23:18;65.90;;;31.40;;
1076;SDS011;64114;48.726;9.370;2022-12-18T12:25:55;49.03;;;26.93;;
1076;SDS011;64114;48.726;9.370;2022-12-18T12:28:41;52.43;;;24.93;;
1076;SDS011;64114;48.726;9.370;2022-12-18T12:31:21;55.80;;;26.67;;
1076;SDS011;64114;48.726;9.370;2022-12-18T12:34:04;53.40;;;28.20;;
1076;SDS011;64114;48.726;9.370;2022-12-18T12:36:41;57.53;;;29.57;;
1076;SDS011;64114;48.726;9.370;2022-12-18T12:39:20;54.33;;;29.57;;
1076;SDS011;64114;48.726;9.370;2022-12-18T12:41:51;43.53;;;25.70;;
1076;SDS011;64114;48.726;9.370;2022-12-18T12:44:42;58.53;;;27.23;;
1076;SDS011;64114;48.726;9.370;2022-12-18T12:47:22;46.30;;;25.33;;
1076;SDS011;64114;48.726;9.370;2022-12-18T12:49:56;57.77;;;27.30;;
1076;SDS011;64114;48.726;9.370;2022-12-18T12:52:30;50.23;;;27.00;;
1076;SDS011;64114;48.726;9.370;2022-12-18T12:55:02;43.63;;;23.87;;
1076;SDS011;64114;48.726;9.370;2022-12-18T12:57:40;53.03;;;26.70;;
1076;SDS011;64114;48.726;9.370;2022-12-18T13:00:14;45.20;;;24.73;;
1076;SDS011;64114;48.726;9.370;2022-12-18T13:02:45;51.33;;;27.03;;
1076;SDS011;64114;48.726;9.370;2022-12-18T13:05:21;57.47;;;27.97;;
1076;SDS011;64114;48.726;9.370;2022-12-18T13:07:54;51.27;;;27.90;;
1076;SDS011;64114;48.726;9.370;2022-12-18T13:10:31;55.13;;;26.47;;
1076;SDS011;64114;48.726;9.370;2022-12-18T13:13:01;51.33;;;24.77;;
1076;SDS011;64114;48.726;9.370;2022-12-18T13:15:33;54.73;;;28.30;;
1076;SDS011;64114;48.726;9.370;2022-12-18T13:18:10;47.20;;;26.20;;
1076;SDS011;64114;48.726;9.370;2022-12-18T13:20:43;49.80;;;25.97;;
1076;SDS011;64114;48.726;9.370;2022-12-18T13:23:26;52.07;;;26.23;;
1076;SDS011;64114;48.726;9.370;2022-12-18T13:25:56;46.63;;;25.87;;
1076;SDS011;64114;48.726;9.370;2022-12-18T13:34:34;50.00;;;24.90;;
1076;SDS011;64114;48.726;9.370;2022-12-18T13:43:30;56.60;;;28.37;;
1076;SDS011;64114;48.726;9.370;2022-12-18T13:46:06;42.53;;;23.20;;
1076;SDS011;64114;48.726;9.370;2022-12-18T13:51:34;65.53;;;27.30;;
1076;SDS011;64114;48.726;9.370;2022-12-18T13:54:05;53.77;;;27.50;;
1076;SDS011;64114;48.726;9.370;2022-12-18T13:56:43;48.30;;;25.53;;
1076;SDS011;64114;48.726;9.370;2022-12-18T13:59:14;50.83;;;25.43;;
1076;SDS011;64114;48.726;9.370;2022-12-18T14:01:50;48.70;;;25.63;;
1076;SDS011;64114;48.726;9.370;2022-12-18T14:04:22;46.73;;;28.10;;
1076;SDS011;64114;48.726;9.370;2022-12-18T14:06:53;55.20;;;29.67;;
1076;SDS011;64114;48.726;9.370;2022-12-18T14:09:26;52.00;;;28.73;;
1076;SDS011;64114;48.726;9.370;2022-12-18T14:11:57;57.93;;;29.27;;
1076;SDS011;64114;48.726;9.370;2022-12-18T14:14:43;56.23;;;28.40;;
1076;SDS011;64114;48.726;9.370;2022-12-18T14:17:14;60.13;;;28.17;;
1076;SDS011;64114;48.726;9.370;2022-12-18T14:19:44;50.80;;;25.03;;
1076;SDS011;64114;48.726;9.370;2022-12-18T14:22:14;55.40;;;27.53;;
1076;SDS011;64114;48.726;9.370;2022-12-18T14:24:44;53.63;;;26.50;;
1076;SDS011;64114;48.726;9.370;2022-12-18T14:27:17;49.63;;;26.77;;
1076;SDS011;64114;48.726;9.370;2022-12-18T14:29:51;46.60;;;23.80;;
1076;SDS011;64114;48.726;9.370;2022-12-18T14:32:19;50.27;;;23.90;;
1076;SDS011;64114;48.726;9.370;2022-12-18T14:34:49;49.10;;;23.07;;
1076;SDS011;64114;48.726;9.370;2022-12-18T14:37:20;48.27;;;21.93;;
1076;SDS011;64114;48.726;9.370;2022-12-18T14:39:53;56.03;;;23.80;;
1076;SDS011;64114;48.726;9.370;2022-12-18T14:42:23;46.53;;;22.50;;
1076;SDS011;64114;48.726;9.370;2022-12-18T14:48:11;49.10;;;23.40;;
1076;SDS011;64114;48.726;9.370;2022-12-18T14:50:56;48.33;;;23.93;;
1076;SDS011;64114;48.726;9.370;2022-12-18T14:53:28;49.33;;;22.40;;
1076;SDS011;64114;48.726;9.370;2022-12-18T14:56:03;47.27;;;21.50;;
1076;SDS011;64114;48.726;9.370;2022-12-18T14:58:45;44.90;;;22.03;;
1076;SDS011;64114;48.726;9.370;2022-12-18T15:01:18;47.10;;;21.40;;
1076;SDS011;64114;48.726;9.370;2022-12-18T15:03:49;53.90;;;21.83;;
1076;SDS011;64114;48.726;9.370;2022-12-18T15:06:23;43.63;;;23.07;;
1076;SDS011;64114;48.726;9.370;2022-12-18T15:08:54;42.93;;;21.23;;
1076;SDS011;64114;48.726;9.370;2022-12-18T15:11:25;43.90;;;24.37;;
1076;SDS011;64114;48.726;9.370;2022-12-18T15:13:57;52.70;;;26.70;;
1076;SDS011;64114;48.726;9.370;2022-12-18T15:16:25;53.27;;;25.10;;
1076;SDS011;64114;48.726;9.370;2022-12-18T15:18:54;45.00;;;23.37;;
1076;SDS011;64114;48.726;9.370;2022-12-18T15:21:22;48.53;;;24.40;;
1076;SDS011;64114;48.726;9.370;2022-12-18T15:23:50;49.80;;;23.60;;
1076;SDS011;64114;48.726;9.370;2022-12-18T15:26:20;42.93;;;21.33;;
1076;SDS011;64114;48.726;9.370;2022-12-18T15:28:49;42.70;;;23.23;;